sensor_id;sensor_type;location;lat;lon;timestamp;P1;durP1;ratioP1;P2;durP2;ratioP2
1366;SDS011;16877;48.810;9.282;2023-02-01T00:01:51;4.60;;;3.60;;
1366;SDS011;16877;48.810;9.282;2023-02-01T00:04:18;5.03;;;4.53;;
1366;SDS011;16877;48.810;9.282;2023-02-01T00:06:46;3.90;;;3.37;;
1366;SDS011;16877;48.810;9.282;2023-02-01T00:09:14;4.40;;;3.90;;
1366;SDS011;16877;48.810;9.282;2023-02-01T00:11:44;4.90;;;4.00;;
1366;SDS011;16877;48.810;9.282;2023-02-01T00:14:11;4.67;;;4.00;;
1366;SDS011;16877;48.810;9.282;2023-02-01T00:16:39;5.60;;;4.83;;
1366;SDS011;16877;48.810;9.282;2023-02-01T00:19:12;5.90;;;4.13;;
1366;SDS011;16877;48.810;9.282;2023-02-01T00:21:41;4.13;;;3.47;;
1366;SDS011;16877;48.810;9.282;2023-02-01T00:24:11;4.03;;;3.50;;
1366;SDS011;16877;48.810;9.282;2023-02-01T00:26:44;3.90;;;2.90;;
1366;SDS011;16877;48.810;9.282;2023-02-01T00:29:13;4.00;;;3.30;;
1366;SDS011;16877;48.810;9.282;2023-02-01T00:31:43;3.77;;;3.37;;
1366;SDS011;16877;48.810;9.282;2023-02-01T00:34:10;4.03;;;3.40;;
1366;SDS011;16877;48.810;9.282;2023-02-01T00:36:41;3.63;;;2.97;;
1366;SDS011;16877;48.810;9.282;2023-02-01T00:39:08;4.10;;;2.80;;
1366;SDS011;16877;48.810;9.282;2023-02-01T00:41:38;3.97;;;3.30;;
1366;SDS011;16877;48.810;9.282;2023-02-01T00:44:09;4.27;;;3.13;;
1366;SDS011;16877;48.810;9.282;2023-02-01T00:46:36;4.03;;;2.77;;
1366;SDS011;16877;48.810;9.282;2023-02-01T00:49:04;3.20;;;2.53;;
1366;SDS011;16877;48.810;9.282;2023-02-01T00:51:32;3.50;;;2.53;;
1366;SDS011;16877;48.810;9.282;2023-02-01T00:54:01;3.70;;;2.70;;
1366;SDS011;16877;48.810;9.282;2023-02-01T00:56:29;3.70;;;2.97;;
1366;SDS011;16877;48.810;9.282;2023-02-01T00:58:57;5.63;;;3.03;;
1366;SDS011;16877;48.810;9.282;2023-02-01T01:01:26;4.80;;;2.70;;
1366;SDS011;16877;48.810;9.282;2023-02-01T01:03:54;2.83;;;2.40;;
1366;SDS011;16877;48.810;9.282;2023-02-01T01:06:24;3.67;;;2.60;;
1366;SDS011;16877;48.810;9.282;2023-02-01T01:08:53;3.30;;;2.13;;
1366;SDS011;16877;48.810;9.282;2023-02-01T01:11:22;2.93;;;2.20;;
1366;SDS011;16877;48.810;9.282;2023-02-01T01:13:51;3.50;;;2.80;;
1366;SDS011;16877;48.810;9.282;2023-02-01T01:16:20;4.20;;;3.00;;
1366;SDS011;16877;48.810;9.282;2023-02-01T01:18:49;3.00;;;2.40;;
1366;SDS011;16877;48.810;9.282;2023-02-01T01:21:17;3.83;;;2.40;;
1366;SDS011;16877;48.810;9.282;2023-02-01T01:23:44;3.20;;;2.10;;
1366;SDS011;16877;48.810;9.282;2023-02-01T01:26:13;2.80;;;2.30;;
1366;SDS011;16877;48.810;9.282;2023-02-01T01:28:42;4.23;;;2.93;;
1366;SDS011;16877;48.810;9.282;2023-02-01T01:31:09;3.97;;;2.73;;
1366;SDS011;16877;48.810;9.282;2023-02-01T01:33:37;3.40;;;2.50;;
1366;SDS011;16877;48.810;9.282;2023-02-01T01:36:06;4.53;;;2.63;;
1366;SDS011;16877;48.810;9.282;2023-02-01T01:38:36;2.93;;;2.00;;
1366;SDS011;16877;48.810;9.282;2023-02-01T01:41:04;2.90;;;2.07;;
1366;SDS011;16877;48.810;9.282;2023-02-01T01:43:46;5.50;;;2.07;;
1366;SDS011;16877;48.810;9.282;2023-02-01T01:46:18;2.70;;;2.10;;
1366;SDS011;16877;48.810;9.282;2023-02-01T01:49:03;3.47;;;1.80;;
1366;SDS011;16877;48.810;9.282;2023-02-01T01:51:38;3.40;;;2.20;;
1366;SDS011;16877;48.810;9.282;2023-02-01T01:54:11;2.63;;;1.70;;
1366;SDS011;16877;48.810;9.282;2023-02-01T01:56:43;3.20;;;2.07;;
1366;SDS011;16877;48.810;9.282;2023-02-01T01:59:16;2.40;;;1.80;;
1366;SDS011;16877;48.810;9.282;2023-02-01T02:01:44;2.57;;;1.80;;
1366;SDS011;16877;48.810;9.282;2023-02-01T02:04:13;3.00;;;2.07;;
1366;SDS011;16877;48.810;9.282;2023-02-01T02:06:45;2.90;;;1.90;;
1366;SDS011;16877;48.810;9.282;2023-02-01T02:09:16;2.60;;;1.90;;
1366;SDS011;16877;48.810;9.282;2023-02-01T02:11:43;2.87;;;1.97;;
1366;SDS011;16877;48.810;9.282;2023-02-01T02:14:11;3.37;;;2.17;;
1366;SDS011;16877;48.810;9.282;2023-02-01T02:16:46;2.60;;;2.10;;
1366;SDS011;16877;48.810;9.282;2023-02-01T02:19:32;2.60;;;1.53;;
1366;SDS011;16877;48.810;9.282;2023-02-01T02:22:48;2.37;;;1.93;;
1366;SDS011;16877;48.810;9.282;2023-02-01T02:25:42;3.00;;;2.20;;
1366;SDS011;16877;48.810;9.282;2023-02-01T02:28:32;2.97;;;2.17;;
1366;SDS011;16877;48.810;9.282;2023-02-01T02:31:23;3.40;;;1.93;;
1366;SDS011;16877;48.810;9.282;2023-02-01T02:34:12;2.93;;;2.23;;
1366;SDS011;16877;48.810;9.282;2023-02-01T02:36:46;3.20;;;2.10;;
1366;SDS011;16877;48.810;9.282;2023-02-01T02:39:21;3.50;;;2.10;;
1366;SDS011;16877;48.810;9.282;2023-02-01T02:41:56;2.50;;;1.50;;
1366;SDS011;16877;48.810;9.282;2023-02-01T02:44:46;3.33;;;2.50;;
1366;SDS011;16877;48.810;9.282;2023-02-01T02:47:34;3.10;;;2.10;;
1366;SDS011;16877;48.810;9.282;2023-02-01T02:50:08;3.60;;;2.10;;
1366;SDS011;16877;48.810;9.282;2023-02-01T02:53:00;3.33;;;2.47;;
1366;SDS011;16877;48.810;9.282;2023-02-01T02:55:47;3.20;;;2.33;;
1366;SDS011;16877;48.810;9.282;2023-02-01T02:58:16;3.30;;;2.40;;
1366;SDS011;16877;48.810;9.282;2023-02-01T03:01:02;3.03;;;2.13;;
1366;SDS011;16877;48.810;9.282;2023-02-01T03:03:48;2.70;;;2.40;;
1366;SDS011;16877;48.810;9.282;2023-02-01T03:06:35;3.67;;;2.40;;
1366;SDS011;16877;48.810;9.282;2023-02-01T03:09:10;3.03;;;2.30;;
1366;SDS011;16877;48.810;9.282;2023-02-01T03:11:44;3.47;;;2.50;;
1366;SDS011;16877;48.810;9.282;2023-02-01T03:14:34;3.07;;;1.90;;
1366;SDS011;16877;48.810;9.282;2023-02-01T03:17:04;2.80;;;1.97;;
1366;SDS011;16877;48.810;9.282;2023-02-01T03:19:39;3.30;;;2.10;;
1366;SDS011;16877;48.810;9.282;2023-02-01T03:22:15;3.27;;;1.90;;
1366;SDS011;16877;48.810;9.282;2023-02-01T03:24:47;3.03;;;2.23;;
1366;SDS011;16877;48.810;9.282;2023-02-01T03:27:19;2.83;;;1.97;;
1366;SDS011;16877;48.810;9.282;2023-02-01T03:29:51;3.80;;;2.27;;
1366;SDS011;16877;48.810;9.282;2023-02-01T03:32:22;3.20;;;1.90;;
1366;SDS011;16877;48.810;9.282;2023-02-01T03:34:49;2.83;;;2.07;;
1366;SDS011;16877;48.810;9.282;2023-02-01T03:37:21;2.57;;;1.80;;
1366;SDS011;16877;48.810;9.282;2023-02-01T03:39:53;4.07;;;2.60;;
1366;SDS011;16877;48.810;9.282;2023-02-01T03:42:27;2.93;;;2.33;;
1366;SDS011;16877;48.810;9.282;2023-02-01T03:45:00;2.80;;;2.10;;
1366;SDS011;16877;48.810;9.282;2023-02-01T03:47:33;2.50;;;1.93;;
1366;SDS011;16877;48.810;9.282;2023-02-01T03:50:04;3.37;;;2.30;;
1366;SDS011;16877;48.810;9.282;2023-02-01T03:52:36;3.23;;;2.37;;
1366;SDS011;16877;48.810;9.282;2023-02-01T03:55:06;3.10;;;2.10;;
1366;SDS011;16877;48.810;9.282;2023-02-01T03:57:35;3.20;;;2.50;;
1366;SDS011;16877;48.810;9.282;2023-02-01T04:00:07;3.10;;;2.23;;
1366;SDS011;16877;48.810;9.282;2023-02-01T04:02:36;5.40;;;2.53;;
1366;SDS011;16877;48.810;9.282;2023-02-01T04:05:04;3.07;;;2.57;;
1366;SDS011;16877;48.810;9.282;2023-02-01T04:07:32;3.13;;;2.63;;
1366;SDS011;16877;48.810;9.282;2023-02-01T04:10:01;3.17;;;2.10;;
1366;SDS011;16877;48.810;9.282;2023-02-01T04:12:28;3.00;;;2.37;;
1366;SDS011;16877;48.810;9.282;2023-02-01T04:14:56;3.50;;;2.33;;
1366;SDS011;16877;48.810;9.282;2023-02-01T04:17:23;3.40;;;2.60;;
1366;SDS011;16877;48.810;9.282;2023-02-01T04:19:51;3.77;;;2.40;;
1366;SDS011;16877;48.810;9.282;2023-02-01T04:22:18;4.30;;;2.30;;
1366;SDS011;16877;48.810;9.282;2023-02-01T04:24:45;2.93;;;2.27;;
1366;SDS011;16877;48.810;9.282;2023-02-01T04:27:14;3.20;;;2.37;;
1366;SDS011;16877;48.810;9.282;2023-02-01T04:29:42;3.17;;;2.03;;
1366;SDS011;16877;48.810;9.282;2023-02-01T04:32:14;4.10;;;2.20;;
1366;SDS011;16877;48.810;9.282;2023-02-01T04:34:42;3.77;;;2.07;;
1366;SDS011;16877;48.810;9.282;2023-02-01T04:37:09;2.77;;;2.20;;
1366;SDS011;16877;48.810;9.282;2023-02-01T04:39:36;4.20;;;2.90;;
1366;SDS011;16877;48.810;9.282;2023-02-01T04:42:04;2.93;;;2.27;;
1366;SDS011;16877;48.810;9.282;2023-02-01T04:44:33;3.50;;;2.30;;
1366;SDS011;16877;48.810;9.282;2023-02-01T04:47:02;2.80;;;2.20;;
1366;SDS011;16877;48.810;9.282;2023-02-01T04:49:29;3.20;;;2.40;;
1366;SDS011;16877;48.810;9.282;2023-02-01T04:51:57;2.80;;;2.03;;
1366;SDS011;16877;48.810;9.282;2023-02-01T04:54:24;2.80;;;2.47;;
1366;SDS011;16877;48.810;9.282;2023-02-01T04:56:52;3.30;;;2.37;;
1366;SDS011;16877;48.810;9.282;2023-02-01T04:59:20;3.00;;;2.23;;
1366;SDS011;16877;48.810;9.282;2023-02-01T05:01:53;3.17;;;2.53;;
1366;SDS011;16877;48.810;9.282;2023-02-01T05:04:20;3.73;;;2.60;;
1366;SDS011;16877;48.810;9.282;2023-02-01T05:06:48;3.43;;;2.63;;
1366;SDS011;16877;48.810;9.282;2023-02-01T05:09:15;2.43;;;1.90;;
1366;SDS011;16877;48.810;9.282;2023-02-01T05:11:43;3.30;;;2.40;;
1366;SDS011;16877;48.810;9.282;2023-02-01T05:14:28;2.87;;;2.40;;
1366;SDS011;16877;48.810;9.282;2023-02-01T05:17:06;2.60;;;2.20;;
1366;SDS011;16877;48.810;9.282;2023-02-01T05:19:34;3.33;;;2.40;;
1366;SDS011;16877;48.810;9.282;2023-02-01T05:22:01;3.70;;;2.23;;
1366;SDS011;16877;48.810;9.282;2023-02-01T05:24:29;4.00;;;2.23;;
1366;SDS011;16877;48.810;9.282;2023-02-01T05:26:56;2.83;;;1.83;;
1366;SDS011;16877;48.810;9.282;2023-02-01T05:29:24;3.73;;;2.47;;
1366;SDS011;16877;48.810;9.282;2023-02-01T05:31:51;3.40;;;2.50;;
1366;SDS011;16877;48.810;9.282;2023-02-01T05:34:20;2.87;;;2.13;;
1366;SDS011;16877;48.810;9.282;2023-02-01T05:36:47;3.43;;;2.30;;
1366;SDS011;16877;48.810;9.282;2023-02-01T05:39:16;2.33;;;1.90;;
1366;SDS011;16877;48.810;9.282;2023-02-01T05:41:44;2.87;;;2.10;;
1366;SDS011;16877;48.810;9.282;2023-02-01T05:44:11;3.10;;;2.20;;
1366;SDS011;16877;48.810;9.282;2023-02-01T05:46:39;2.90;;;2.13;;
1366;SDS011;16877;48.810;9.282;2023-02-01T05:49:07;4.10;;;2.70;;
1366;SDS011;16877;48.810;9.282;2023-02-01T05:51:37;3.17;;;2.63;;
1366;SDS011;16877;48.810;9.282;2023-02-01T05:54:05;2.60;;;1.70;;
1366;SDS011;16877;48.810;9.282;2023-02-01T05:56:32;3.20;;;2.27;;
1366;SDS011;16877;48.810;9.282;2023-02-01T05:59:00;3.00;;;2.30;;
1366;SDS011;16877;48.810;9.282;2023-02-01T06:01:28;3.57;;;2.47;;
1366;SDS011;16877;48.810;9.282;2023-02-01T06:03:55;5.53;;;2.83;;
1366;SDS011;16877;48.810;9.282;2023-02-01T06:06:22;3.83;;;2.53;;
1366;SDS011;16877;48.810;9.282;2023-02-01T06:08:51;2.70;;;2.27;;
1366;SDS011;16877;48.810;9.282;2023-02-01T06:11:19;4.23;;;2.57;;
1366;SDS011;16877;48.810;9.282;2023-02-01T06:13:46;2.93;;;1.80;;
1366;SDS011;16877;48.810;9.282;2023-02-01T06:16:14;3.60;;;2.30;;
1366;SDS011;16877;48.810;9.282;2023-02-01T06:18:41;3.77;;;2.23;;
1366;SDS011;16877;48.810;9.282;2023-02-01T06:21:09;5.80;;;2.60;;
1366;SDS011;16877;48.810;9.282;2023-02-01T06:23:38;3.53;;;2.10;;
1366;SDS011;16877;48.810;9.282;2023-02-01T06:26:08;4.07;;;2.73;;
1366;SDS011;16877;48.810;9.282;2023-02-01T06:28:36;2.93;;;2.20;;
1366;SDS011;16877;48.810;9.282;2023-02-01T06:31:05;2.87;;;1.83;;
1366;SDS011;16877;48.810;9.282;2023-02-01T06:33:34;2.53;;;1.87;;
1366;SDS011;16877;48.810;9.282;2023-02-01T06:36:02;3.07;;;2.27;;
1366;SDS011;16877;48.810;9.282;2023-02-01T06:38:33;2.53;;;1.90;;
1366;SDS011;16877;48.810;9.282;2023-02-01T06:41:02;2.83;;;1.80;;
1366;SDS011;16877;48.810;9.282;2023-02-01T06:43:31;3.10;;;2.20;;
1366;SDS011;16877;48.810;9.282;2023-02-01T06:45:59;3.37;;;2.33;;
1366;SDS011;16877;48.810;9.282;2023-02-01T06:48:27;6.50;;;2.50;;
1366;SDS011;16877;48.810;9.282;2023-02-01T06:50:55;4.73;;;2.33;;
1366;SDS011;16877;48.810;9.282;2023-02-01T06:53:27;3.00;;;2.00;;
1366;SDS011;16877;48.810;9.282;2023-02-01T06:55:55;4.20;;;2.60;;
1366;SDS011;16877;48.810;9.282;2023-02-01T06:58:27;3.80;;;2.70;;
1366;SDS011;16877;48.810;9.282;2023-02-01T07:00:56;3.67;;;2.27;;
1366;SDS011;16877;48.810;9.282;2023-02-01T07:03:24;4.40;;;1.87;;
1366;SDS011;16877;48.810;9.282;2023-02-01T07:05:56;5.50;;;2.40;;
1366;SDS011;16877;48.810;9.282;2023-02-01T07:08:24;3.47;;;2.03;;
1366;SDS011;16877;48.810;9.282;2023-02-01T07:10:52;2.93;;;2.03;;
1366;SDS011;16877;48.810;9.282;2023-02-01T07:13:19;2.80;;;1.93;;
1366;SDS011;16877;48.810;9.282;2023-02-01T07:15:47;5.87;;;2.70;;
1366;SDS011;16877;48.810;9.282;2023-02-01T07:18:17;4.10;;;2.70;;
1366;SDS011;16877;48.810;9.282;2023-02-01T07:20:49;3.97;;;2.50;;
1366;SDS011;16877;48.810;9.282;2023-02-01T07:23:16;3.30;;;2.50;;
1366;SDS011;16877;48.810;9.282;2023-02-01T07:25:45;3.17;;;2.50;;
1366;SDS011;16877;48.810;9.282;2023-02-01T07:28:12;4.93;;;2.93;;
1366;SDS011;16877;48.810;9.282;2023-02-01T07:30:45;4.23;;;2.40;;
1366;SDS011;16877;48.810;9.282;2023-02-01T07:33:15;2.60;;;2.20;;
1366;SDS011;16877;48.810;9.282;2023-02-01T07:35:46;4.00;;;2.77;;
1366;SDS011;16877;48.810;9.282;2023-02-01T07:38:14;3.00;;;2.30;;
1366;SDS011;16877;48.810;9.282;2023-02-01T07:40:42;2.87;;;2.23;;
1366;SDS011;16877;48.810;9.282;2023-02-01T07:43:17;5.97;;;2.83;;
1366;SDS011;16877;48.810;9.282;2023-02-01T07:45:50;4.77;;;2.90;;
1366;SDS011;16877;48.810;9.282;2023-02-01T07:48:22;4.53;;;2.50;;
1366;SDS011;16877;48.810;9.282;2023-02-01T07:51:01;4.33;;;2.57;;
1366;SDS011;16877;48.810;9.282;2023-02-01T07:53:29;3.47;;;2.43;;
1366;SDS011;16877;48.810;9.282;2023-02-01T07:55:59;4.57;;;2.97;;
1366;SDS011;16877;48.810;9.282;2023-02-01T07:58:27;4.83;;;3.00;;
1366;SDS011;16877;48.810;9.282;2023-02-01T08:00:55;4.23;;;2.60;;
1366;SDS011;16877;48.810;9.282;2023-02-01T08:03:42;3.77;;;2.60;;
1366;SDS011;16877;48.810;9.282;2023-02-01T08:06:10;4.60;;;2.07;;
1366;SDS011;16877;48.810;9.282;2023-02-01T08:08:37;4.90;;;2.80;;
1366;SDS011;16877;48.810;9.282;2023-02-01T08:11:05;4.23;;;2.43;;
1366;SDS011;16877;48.810;9.282;2023-02-01T08:13:33;3.63;;;2.30;;
1366;SDS011;16877;48.810;9.282;2023-02-01T08:16:02;5.03;;;2.87;;
1366;SDS011;16877;48.810;9.282;2023-02-01T08:18:31;3.93;;;2.40;;
1366;SDS011;16877;48.810;9.282;2023-02-01T08:21:07;4.10;;;2.60;;
1366;SDS011;16877;48.810;9.282;2023-02-01T08:23:37;4.33;;;3.23;;
1366;SDS011;16877;48.810;9.282;2023-02-01T08:26:07;5.60;;;3.40;;
1366;SDS011;16877;48.810;9.282;2023-02-01T08:28:35;5.97;;;3.60;;
1366;SDS011;16877;48.810;9.282;2023-02-01T08:31:04;5.67;;;3.07;;
1366;SDS011;16877;48.810;9.282;2023-02-01T08:33:33;5.53;;;3.07;;
1366;SDS011;16877;48.810;9.282;2023-02-01T08:36:02;6.03;;;2.60;;
1366;SDS011;16877;48.810;9.282;2023-02-01T08:38:38;3.40;;;2.43;;
1366;SDS011;16877;48.810;9.282;2023-02-01T08:41:06;3.60;;;2.60;;
1366;SDS011;16877;48.810;9.282;2023-02-01T08:43:55;4.70;;;2.70;;
1366;SDS011;16877;48.810;9.282;2023-02-01T08:46:27;5.07;;;3.20;;
1366;SDS011;16877;48.810;9.282;2023-02-01T08:48:58;7.47;;;2.80;;
1366;SDS011;16877;48.810;9.282;2023-02-01T08:51:28;5.60;;;2.90;;
1366;SDS011;16877;48.810;9.282;2023-02-01T08:53:56;4.80;;;2.40;;
1366;SDS011;16877;48.810;9.282;2023-02-01T08:56:23;4.57;;;2.80;;
1366;SDS011;16877;48.810;9.282;2023-02-01T08:58:53;3.20;;;2.30;;
1366;SDS011;16877;48.810;9.282;2023-02-01T09:01:29;4.40;;;2.13;;
1366;SDS011;16877;48.810;9.282;2023-02-01T09:03:59;6.30;;;2.80;;
1366;SDS011;16877;48.810;9.282;2023-02-01T09:06:30;7.20;;;3.40;;
1366;SDS011;16877;48.810;9.282;2023-02-01T09:08:58;4.97;;;3.30;;
1366;SDS011;16877;48.810;9.282;2023-02-01T09:11:25;5.83;;;3.17;;
1366;SDS011;16877;48.810;9.282;2023-02-01T09:13:53;6.13;;;3.07;;
1366;SDS011;16877;48.810;9.282;2023-02-01T09:16:20;9.43;;;3.17;;
1366;SDS011;16877;48.810;9.282;2023-02-01T09:18:48;5.00;;;2.60;;
1366;SDS011;16877;48.810;9.282;2023-02-01T09:21:16;6.47;;;3.23;;
1366;SDS011;16877;48.810;9.282;2023-02-01T09:23:46;6.10;;;2.90;;
1366;SDS011;16877;48.810;9.282;2023-02-01T09:26:14;5.63;;;3.23;;
1366;SDS011;16877;48.810;9.282;2023-02-01T09:28:50;6.00;;;3.60;;
1366;SDS011;16877;48.810;9.282;2023-02-01T09:31:26;8.73;;;3.53;;
1366;SDS011;16877;48.810;9.282;2023-02-01T09:33:54;6.27;;;2.93;;
1366;SDS011;16877;48.810;9.282;2023-02-01T09:36:26;13.73;;;4.20;;
1366;SDS011;16877;48.810;9.282;2023-02-01T09:38:55;6.10;;;3.30;;
1366;SDS011;16877;48.810;9.282;2023-02-01T09:41:26;7.73;;;3.00;;
1366;SDS011;16877;48.810;9.282;2023-02-01T09:44:07;6.57;;;3.53;;
1366;SDS011;16877;48.810;9.282;2023-02-01T09:46:46;5.90;;;2.67;;
1366;SDS011;16877;48.810;9.282;2023-02-01T09:49:14;11.53;;;4.50;;
1366;SDS011;16877;48.810;9.282;2023-02-01T09:51:50;9.50;;;3.27;;
1366;SDS011;16877;48.810;9.282;2023-02-01T09:54:24;8.83;;;3.50;;
1366;SDS011;16877;48.810;9.282;2023-02-01T09:56:53;9.50;;;3.93;;
1366;SDS011;16877;48.810;9.282;2023-02-01T09:59:29;8.43;;;3.53;;
1366;SDS011;16877;48.810;9.282;2023-02-01T10:02:10;7.73;;;3.70;;
1366;SDS011;16877;48.810;9.282;2023-02-01T10:04:41;6.23;;;3.00;;
1366;SDS011;16877;48.810;9.282;2023-02-01T10:07:11;9.57;;;3.70;;
1366;SDS011;16877;48.810;9.282;2023-02-01T10:09:58;8.60;;;3.00;;
1366;SDS011;16877;48.810;9.282;2023-02-01T10:12:37;9.63;;;4.10;;
1366;SDS011;16877;48.810;9.282;2023-02-01T10:15:28;7.77;;;2.97;;
1366;SDS011;16877;48.810;9.282;2023-02-01T10:18:06;10.47;;;3.30;;
1366;SDS011;16877;48.810;9.282;2023-02-01T10:20:57;8.13;;;3.17;;
1366;SDS011;16877;48.810;9.282;2023-02-01T10:23:41;9.13;;;3.73;;
1366;SDS011;16877;48.810;9.282;2023-02-01T10:26:25;8.27;;;3.43;;
1366;SDS011;16877;48.810;9.282;2023-02-01T10:28:58;5.53;;;2.63;;
1366;SDS011;16877;48.810;9.282;2023-02-01T10:31:30;9.87;;;3.67;;
1366;SDS011;16877;48.810;9.282;2023-02-01T10:34:06;9.47;;;3.67;;
1366;SDS011;16877;48.810;9.282;2023-02-01T10:36:41;9.00;;;3.33;;
1366;SDS011;16877;48.810;9.282;2023-02-01T10:39:16;9.47;;;3.40;;
1366;SDS011;16877;48.810;9.282;2023-02-01T10:41:45;9.43;;;3.33;;
1366;SDS011;16877;48.810;9.282;2023-02-01T10:44:14;6.43;;;2.97;;
1366;SDS011;16877;48.810;9.282;2023-02-01T10:46:43;8.20;;;3.23;;
1366;SDS011;16877;48.810;9.282;2023-02-01T10:49:12;10.10;;;3.33;;
1366;SDS011;16877;48.810;9.282;2023-02-01T10:51:45;11.17;;;3.00;;
1366;SDS011;16877;48.810;9.282;2023-02-01T10:54:16;8.83;;;3.20;;
1366;SDS011;16877;48.810;9.282;2023-02-01T10:56:47;7.93;;;3.17;;
1366;SDS011;16877;48.810;9.282;2023-02-01T10:59:16;8.43;;;3.10;;
1366;SDS011;16877;48.810;9.282;2023-02-01T11:01:44;9.87;;;3.73;;
1366;SDS011;16877;48.810;9.282;2023-02-01T11:04:18;8.90;;;3.40;;
1366;SDS011;16877;48.810;9.282;2023-02-01T11:06:46;9.70;;;4.00;;
1366;SDS011;16877;48.810;9.282;2023-02-01T11:09:16;11.53;;;4.27;;
1366;SDS011;16877;48.810;9.282;2023-02-01T11:11:55;8.70;;;3.57;;
1366;SDS011;16877;48.810;9.282;2023-02-01T11:14:34;8.07;;;3.50;;
1366;SDS011;16877;48.810;9.282;2023-02-01T11:17:16;8.37;;;3.33;;
1366;SDS011;16877;48.810;9.282;2023-02-01T11:19:56;14.20;;;4.20;;
1366;SDS011;16877;48.810;9.282;2023-02-01T11:22:27;13.57;;;4.17;;
1366;SDS011;16877;48.810;9.282;2023-02-01T11:24:55;14.50;;;4.00;;
1366;SDS011;16877;48.810;9.282;2023-02-01T11:27:24;11.10;;;3.30;;
1366;SDS011;16877;48.810;9.282;2023-02-01T11:29:53;12.00;;;4.47;;
1366;SDS011;16877;48.810;9.282;2023-02-01T11:32:29;10.63;;;4.00;;
1366;SDS011;16877;48.810;9.282;2023-02-01T11:34:58;10.77;;;3.83;;
1366;SDS011;16877;48.810;9.282;2023-02-01T11:37:28;10.90;;;4.37;;
1366;SDS011;16877;48.810;9.282;2023-02-01T11:39:58;7.40;;;3.40;;
1366;SDS011;16877;48.810;9.282;2023-02-01T11:42:28;11.77;;;4.00;;
1366;SDS011;16877;48.810;9.282;2023-02-01T11:47:44;7.50;;;4.00;;
1366;SDS011;16877;48.810;9.282;2023-02-01T11:50:14;10.90;;;3.87;;
1366;SDS011;16877;48.810;9.282;2023-02-01T11:52:53;10.90;;;4.40;;
1366;SDS011;16877;48.810;9.282;2023-02-01T11:55:50;9.83;;;3.90;;
1366;SDS011;16877;48.810;9.282;2023-02-01T11:58:26;9.93;;;3.97;;
1366;SDS011;16877;48.810;9.282;2023-02-01T12:01:07;7.90;;;3.40;;
1366;SDS011;16877;48.810;9.282;2023-02-01T12:06:43;8.20;;;3.60;;
1366;SDS011;16877;48.810;9.282;2023-02-01T12:09:19;10.20;;;4.00;;
1366;SDS011;16877;48.810;9.282;2023-02-01T12:12:12;8.37;;;3.03;;
1366;SDS011;16877;48.810;9.282;2023-02-01T12:14:54;10.60;;;3.67;;
1366;SDS011;16877;48.810;9.282;2023-02-01T12:17:41;7.80;;;2.90;;
1366;SDS011;16877;48.810;9.282;2023-02-01T12:20:20;6.20;;;2.60;;
1366;SDS011;16877;48.810;9.282;2023-02-01T12:23:04;10.83;;;3.23;;
1366;SDS011;16877;48.810;9.282;2023-02-01T12:25:43;6.23;;;2.80;;
1366;SDS011;16877;48.810;9.282;2023-02-01T12:28:32;8.43;;;3.50;;
1366;SDS011;16877;48.810;9.282;2023-02-01T12:31:28;7.33;;;2.70;;
1366;SDS011;16877;48.810;9.282;2023-02-01T12:37:11;7.77;;;2.63;;
1366;SDS011;16877;48.810;9.282;2023-02-01T12:39:46;10.00;;;3.67;;
1366;SDS011;16877;48.810;9.282;2023-02-01T12:42:23;32.87;;;18.87;;
1366;SDS011;16877;48.810;9.282;2023-02-01T12:44:59;12.80;;;6.60;;
1366;SDS011;16877;48.810;9.282;2023-02-01T12:47:35;24.03;;;14.30;;
1366;SDS011;16877;48.810;9.282;2023-02-01T12:50:11;12.87;;;7.17;;
1366;SDS011;16877;48.810;9.282;2023-02-01T12:52:49;11.97;;;4.83;;
1366;SDS011;16877;48.810;9.282;2023-02-01T12:55:34;8.00;;;3.10;;
1366;SDS011;16877;48.810;9.282;2023-02-01T12:58:06;7.03;;;3.73;;
1366;SDS011;16877;48.810;9.282;2023-02-01T13:00:40;12.27;;;2.97;;
1366;SDS011;16877;48.810;9.282;2023-02-01T13:03:13;10.27;;;3.17;;
1366;SDS011;16877;48.810;9.282;2023-02-01T13:05:51;11.30;;;3.40;;
1366;SDS011;16877;48.810;9.282;2023-02-01T13:08:25;6.60;;;2.73;;
1366;SDS011;16877;48.810;9.282;2023-02-01T13:11:04;5.60;;;2.80;;
1366;SDS011;16877;48.810;9.282;2023-02-01T13:13:40;12.53;;;3.60;;
1366;SDS011;16877;48.810;9.282;2023-02-01T13:16:15;7.20;;;2.70;;
1366;SDS011;16877;48.810;9.282;2023-02-01T13:18:49;8.03;;;2.80;;
1366;SDS011;16877;48.810;9.282;2023-02-01T13:21:20;8.90;;;2.63;;
1366;SDS011;16877;48.810;9.282;2023-02-01T13:23:50;12.73;;;3.63;;
1366;SDS011;16877;48.810;9.282;2023-02-01T13:26:19;7.63;;;3.27;;
1366;SDS011;16877;48.810;9.282;2023-02-01T13:28:49;5.90;;;3.03;;
1366;SDS011;16877;48.810;9.282;2023-02-01T13:34:30;5.47;;;2.80;;
1366;SDS011;16877;48.810;9.282;2023-02-01T13:37:35;7.70;;;3.10;;
1366;SDS011;16877;48.810;9.282;2023-02-01T13:40:21;7.97;;;2.67;;
1366;SDS011;16877;48.810;9.282;2023-02-01T13:43:11;9.40;;;3.40;;
1366;SDS011;16877;48.810;9.282;2023-02-01T13:45:45;8.23;;;2.73;;
1366;SDS011;16877;48.810;9.282;2023-02-01T13:48:21;6.03;;;2.93;;
1366;SDS011;16877;48.810;9.282;2023-02-01T13:50:55;9.30;;;3.40;;
1366;SDS011;16877;48.810;9.282;2023-02-01T13:53:26;9.30;;;2.90;;
1366;SDS011;16877;48.810;9.282;2023-02-01T13:55:57;7.93;;;3.13;;
1366;SDS011;16877;48.810;9.282;2023-02-01T13:58:30;10.40;;;3.80;;
1366;SDS011;16877;48.810;9.282;2023-02-01T14:04:05;8.73;;;3.27;;
1366;SDS011;16877;48.810;9.282;2023-02-01T14:06:55;11.00;;;3.10;;
1366;SDS011;16877;48.810;9.282;2023-02-01T14:09:32;6.20;;;3.13;;
1366;SDS011;16877;48.810;9.282;2023-02-01T14:15:17;7.87;;;2.87;;
1366;SDS011;16877;48.810;9.282;2023-02-01T14:17:49;7.03;;;3.00;;
1366;SDS011;16877;48.810;9.282;2023-02-01T14:23:13;6.30;;;2.80;;
1366;SDS011;16877;48.810;9.282;2023-02-01T14:25:43;7.60;;;3.57;;
1366;SDS011;16877;48.810;9.282;2023-02-01T14:28:11;10.27;;;3.33;;
1366;SDS011;16877;48.810;9.282;2023-02-01T14:30:51;7.33;;;2.70;;
1366;SDS011;16877;48.810;9.282;2023-02-01T14:33:21;5.50;;;2.83;;
1366;SDS011;16877;48.810;9.282;2023-02-01T14:36:02;8.83;;;3.37;;
1366;SDS011;16877;48.810;9.282;2023-02-01T14:38:36;7.27;;;3.33;;
1366;SDS011;16877;48.810;9.282;2023-02-01T14:41:30;6.47;;;3.03;;
1366;SDS011;16877;48.810;9.282;2023-02-01T14:47:07;5.30;;;3.17;;
1366;SDS011;16877;48.810;9.282;2023-02-01T14:49:54;8.97;;;3.33;;
1366;SDS011;16877;48.810;9.282;2023-02-01T14:52:37;9.20;;;3.00;;
1366;SDS011;16877;48.810;9.282;2023-02-01T14:55:13;6.33;;;3.00;;
1366;SDS011;16877;48.810;9.282;2023-02-01T14:57:46;12.13;;;3.90;;
1366;SDS011;16877;48.810;9.282;2023-02-01T15:00:19;7.73;;;2.90;;
1366;SDS011;16877;48.810;9.282;2023-02-01T15:02:49;6.40;;;2.93;;
1366;SDS011;16877;48.810;9.282;2023-02-01T15:05:28;11.57;;;3.50;;
1366;SDS011;16877;48.810;9.282;2023-02-01T15:08:05;8.83;;;3.37;;
1366;SDS011;16877;48.810;9.282;2023-02-01T15:10:51;8.03;;;3.53;;
1366;SDS011;16877;48.810;9.282;2023-02-01T15:13:21;12.87;;;4.03;;
1366;SDS011;16877;48.810;9.282;2023-02-01T15:15:59;10.90;;;3.60;;
1366;SDS011;16877;48.810;9.282;2023-02-01T15:18:28;9.30;;;3.30;;
1366;SDS011;16877;48.810;9.282;2023-02-01T15:20:56;10.07;;;4.30;;
1366;SDS011;16877;48.810;9.282;2023-02-01T15:23:25;9.10;;;3.80;;
1366;SDS011;16877;48.810;9.282;2023-02-01T15:25:57;9.23;;;3.87;;
1366;SDS011;16877;48.810;9.282;2023-02-01T15:28:26;10.00;;;3.27;;
1366;SDS011;16877;48.810;9.282;2023-02-01T15:30:54;10.57;;;4.27;;
1366;SDS011;16877;48.810;9.282;2023-02-01T15:33:24;10.93;;;3.53;;
1366;SDS011;16877;48.810;9.282;2023-02-01T15:35:53;8.27;;;3.50;;
1366;SDS011;16877;48.810;9.282;2023-02-01T15:41:11;7.27;;;3.03;;
1366;SDS011;16877;48.810;9.282;2023-02-01T15:43:42;11.50;;;4.27;;
1366;SDS011;16877;48.810;9.282;2023-02-01T15:46:14;8.83;;;4.17;;
1366;SDS011;16877;48.810;9.282;2023-02-01T15:48:45;8.13;;;3.40;;
1366;SDS011;16877;48.810;9.282;2023-02-01T15:51:14;8.70;;;3.83;;
1366;SDS011;16877;48.810;9.282;2023-02-01T15:53:48;7.17;;;3.53;;
1366;SDS011;16877;48.810;9.282;2023-02-01T15:56:25;10.43;;;3.47;;
1366;SDS011;16877;48.810;9.282;2023-02-01T15:58:57;9.70;;;3.83;;
1366;SDS011;16877;48.810;9.282;2023-02-01T16:01:27;8.83;;;3.67;;